createdAt,value
2018-06-15T00:01:37.340Z,100577.97
2018-06-15T00:04:06.016Z,100580.45
2018-06-15T00:06:36.509Z,100581.62
2018-06-15T00:09:05.219Z,100582.89
2018-06-15T00:11:34.333Z,100585.17
2018-06-15T00:14:03.020Z,100589.56
2018-06-15T00:16:31.752Z,100590.42
2018-06-15T00:19:00.469Z,100593.22
2018-06-15T00:21:29.195Z,100593.36
2018-06-15T00:23:58.033Z,100593.02
2018-06-15T00:26:26.738Z,100596.75
2018-06-15T00:28:55.558Z,100593.58
2018-06-15T00:31:24.326Z,100592.20
2018-06-15T00:33:53.176Z,100595.49
2018-06-15T00:36:22.027Z,100591.30
2018-06-15T00:38:50.983Z,100591.03
2018-06-15T00:41:20.305Z,100590.47
2018-06-15T00:43:49.060Z,100598.23
2018-06-15T00:46:17.810Z,100603.58
2018-06-15T00:48:47.266Z,100598.89
2018-06-15T00:51:15.982Z,100606.34
2018-06-15T00:53:44.695Z,100605.26
2018-06-15T00:56:14.224Z,100610.23
2018-06-15T00:58:45.049Z,100607.84
2018-06-15T01:01:13.903Z,100615.58
2018-06-15T01:03:42.642Z,100614.33
2018-06-15T01:06:11.882Z,100616.59
2018-06-15T01:08:41.389Z,100620.33
2018-06-15T01:11:09.742Z,100621.42
2018-06-15T01:13:39.083Z,100617.82
2018-06-15T01:16:08.822Z,100612.61
2018-06-15T01:18:38.092Z,100605.36
2018-06-15T01:21:07.447Z,100604.39
2018-06-15T01:23:37.592Z,100614.78
2018-06-15T01:26:08.023Z,100611.34
2018-06-15T01:28:41.829Z,100607.50
2018-06-15T01:31:13.331Z,100604.64
2018-06-15T01:33:43.941Z,100603.89
2018-06-15T01:36:13.321Z,100604.39
2018-06-15T01:38:42.035Z,100600.84
2018-06-15T01:41:11.163Z,100600.70
2018-06-15T01:43:42.415Z,100603.72
2018-06-15T01:46:12.636Z,100606.75
2018-06-15T01:48:41.679Z,100606.66
2018-06-15T01:51:10.505Z,100615.35
2018-06-15T01:53:39.647Z,100617.30
2018-06-15T01:56:11.267Z,100616.27
2018-06-15T01:58:40.966Z,100620.83
2018-06-15T02:01:09.670Z,100621.94
2018-06-15T02:03:38.470Z,100619.69
2018-06-15T02:06:07.238Z,100622.27
2018-06-15T02:08:36.025Z,100620.27
2018-06-15T02:11:04.882Z,100615.05
2018-06-15T02:13:33.631Z,100612.50
2018-06-15T02:16:03.506Z,100608.64
2018-06-15T02:18:32.582Z,100611.92
2018-06-15T02:21:01.327Z,100608.04
2018-06-15T02:23:30.151Z,100612.59
2018-06-15T02:25:58.898Z,100608.22
2018-06-15T02:28:27.681Z,100606.42
2018-06-15T02:30:56.746Z,100610.03
2018-06-15T02:33:25.575Z,100608.00
2018-06-15T02:35:54.314Z,100611.05
2018-06-15T02:38:23.075Z,100610.34
2018-06-15T02:40:51.852Z,100617.27
2018-06-15T02:43:20.669Z,100613.87
2018-06-15T02:45:52.324Z,100613.63
2018-06-15T02:48:21.109Z,100620.42
2018-06-15T02:50:50.225Z,100618.39
2018-06-15T02:53:19.010Z,100620.27
2018-06-15T02:55:47.989Z,100618.57
2018-06-15T02:58:16.749Z,100618.81
2018-06-15T03:00:45.477Z,100625.06
2018-06-15T03:03:14.644Z,100626.09
2018-06-15T03:05:43.411Z,100631.89
2018-06-15T03:08:12.373Z,100639.39
2018-06-15T03:10:41.583Z,100637.91
2018-06-15T03:13:10.581Z,100638.20
2018-06-15T03:15:51.217Z,100638.05
2018-06-15T03:18:20.011Z,100641.94
2018-06-15T03:20:50.543Z,100645.31
2018-06-15T03:23:19.301Z,100634.78
2018-06-15T03:25:51.426Z,100643.78
2018-06-15T03:28:20.085Z,100643.42
2018-06-15T03:30:49.040Z,100644.70
2018-06-15T03:33:17.937Z,100655.21
2018-06-15T03:35:46.695Z,100655.88
2018-06-15T03:38:15.432Z,100650.70
2018-06-15T03:40:44.225Z,100652.24
2018-06-15T03:43:12.976Z,100653.81
2018-06-15T03:45:41.767Z,100655.94
2018-06-15T03:48:10.861Z,100660.25
2018-06-15T03:50:39.673Z,100658.36
2018-06-15T03:53:08.896Z,100659.95
2018-06-15T03:55:37.671Z,100655.20
2018-06-15T03:58:06.575Z,100663.27
2018-06-15T04:00:35.838Z,100666.06
2018-06-15T04:03:05.030Z,100668.98
2018-06-15T04:05:34.795Z,100668.77
2018-06-15T04:08:10.482Z,100671.71
2018-06-15T04:10:40.422Z,100669.95
2018-06-15T04:13:09.140Z,100664.33
2018-06-15T04:15:37.915Z,100669.39
2018-06-15T04:18:06.977Z,100664.91
2018-06-15T04:20:35.904Z,100662.23
2018-06-15T04:23:05.886Z,100653.53
2018-06-15T04:25:34.777Z,100661.17
2018-06-15T04:28:03.550Z,100666.04
2018-06-15T04:30:32.318Z,100667.61
2018-06-15T04:35:49.766Z,100669.22
2018-06-15T04:38:18.747Z,100671.47
2018-06-15T04:40:47.851Z,100671.33
2018-06-15T04:43:16.953Z,100662.42
2018-06-15T04:45:46.035Z,100666.26
2018-06-15T04:48:15.295Z,100665.16
2018-06-15T04:50:44.507Z,100668.34
2018-06-15T04:53:13.676Z,100659.90
2018-06-15T04:55:42.482Z,100667.08
2018-06-15T04:58:11.400Z,100666.61
2018-06-15T05:00:40.151Z,100668.54
2018-06-15T05:03:09.263Z,100672.52
2018-06-15T05:05:38.177Z,100680.29
2018-06-15T05:08:06.950Z,100678.29
2018-06-15T05:10:36.486Z,100683.02
2018-06-15T05:13:05.521Z,100677.24
2018-06-15T05:15:34.301Z,100680.70
2018-06-15T05:18:03.779Z,100678.14
2018-06-15T05:20:32.972Z,100680.59
2018-06-15T05:23:07.913Z,100678.23
2018-06-15T05:25:38.090Z,100685.63
2018-06-15T05:28:18.239Z,100685.89
2018-06-15T05:30:46.261Z,100692.16
2018-06-15T05:33:25.179Z,100686.78
2018-06-15T05:35:53.948Z,100693.59
2018-06-15T05:38:24.762Z,100689.85
2018-06-15T05:40:53.543Z,100698.81
2018-06-15T05:43:22.473Z,100697.44
2018-06-15T05:45:53.518Z,100700.19
2018-06-15T05:48:22.295Z,100694.72
2018-06-15T05:50:53.191Z,100701.91
2018-06-15T05:53:21.903Z,100704.78
2018-06-15T05:55:50.966Z,100704.17
2018-06-15T05:58:19.748Z,100703.67
2018-06-15T06:00:48.608Z,100712.30
2018-06-15T06:03:17.690Z,100708.02
2018-06-15T06:05:47.443Z,100708.08
2018-06-15T06:08:16.480Z,100709.55
2018-06-15T06:10:46.528Z,100708.16
2018-06-15T06:13:15.403Z,100706.98
2018-06-15T06:15:44.473Z,100716.23
2018-06-15T06:18:15.511Z,100714.09
2018-06-15T06:20:44.500Z,100713.69
2018-06-15T06:23:14.844Z,100711.21
2018-06-15T06:25:43.622Z,100716.66
2018-06-15T06:28:12.421Z,100713.52
2018-06-15T06:30:42.297Z,100717.95
2018-06-15T06:33:11.372Z,100718.19
2018-06-15T06:35:40.341Z,100724.03
2018-06-15T06:38:09.747Z,100724.03
2018-06-15T06:40:38.499Z,100726.96
2018-06-15T06:43:07.611Z,100727.95
2018-06-15T06:45:36.435Z,100736.24
2018-06-15T06:48:05.173Z,100745.13
2018-06-15T06:50:33.850Z,100746.94
2018-06-15T06:53:02.562Z,100745.37
2018-06-15T06:55:31.256Z,100740.98
2018-06-15T06:58:00.396Z,100745.98
2018-06-15T07:00:32.363Z,100744.72
2018-06-15T07:03:01.640Z,100743.28
2018-06-15T07:05:30.959Z,100742.38
2018-06-15T07:07:59.854Z,100747.94
2018-06-15T07:10:41.023Z,100739.82
2018-06-15T07:13:09.785Z,100741.27
2018-06-15T07:15:38.691Z,100739.34
2018-06-15T07:18:07.404Z,100741.98
2018-06-15T07:20:37.207Z,100744.09
2018-06-15T07:23:05.829Z,100739.59
2018-06-15T07:25:35.057Z,100747.62
2018-06-15T07:28:04.045Z,100742.70
2018-06-15T07:30:33.266Z,100751.02
2018-06-15T07:33:04.760Z,100752.86
2018-06-15T07:35:34.889Z,100751.86
2018-06-15T07:38:03.783Z,100751.23
2018-06-15T07:40:32.585Z,100754.53
2018-06-15T07:43:01.296Z,100755.75
2018-06-15T07:45:30.248Z,100751.56
2018-06-15T07:47:59.272Z,100750.53
2018-06-15T07:50:29.426Z,100750.58
2018-06-15T07:52:58.276Z,100753.30
2018-06-15T07:55:27.740Z,100756.95
2018-06-15T07:57:58.018Z,100756.28
2018-06-15T08:00:27.162Z,100760.13
2018-06-15T08:03:00.255Z,100752.17
2018-06-15T08:05:32.140Z,100759.89
2018-06-15T08:08:01.042Z,100754.12
2018-06-15T08:10:30.460Z,100759.63
2018-06-15T08:12:59.339Z,100761.98
2018-06-15T08:15:28.865Z,100764.58
2018-06-15T08:18:02.163Z,100768.97
2018-06-15T08:20:31.597Z,100771.69
2018-06-15T08:23:01.008Z,100776.55
2018-06-15T08:25:30.499Z,100771.77
2018-06-15T08:27:59.485Z,100776.09
2018-06-15T08:30:28.224Z,100778.48
2018-06-15T08:32:56.946Z,100770.34
2018-06-15T08:35:26.024Z,100777.48
2018-06-15T08:37:54.902Z,100777.36
2018-06-15T08:40:23.557Z,100768.44
2018-06-15T08:42:52.324Z,100774.44
2018-06-15T08:45:30.088Z,100770.73
2018-06-15T08:48:01.788Z,100761.72
2018-06-15T08:50:30.818Z,100772.15
2018-06-15T08:53:01.320Z,100764.80
2018-06-15T08:55:30.123Z,100764.45
2018-06-15T08:57:59.045Z,100756.58
2018-06-15T09:00:28.033Z,100761.50
2018-06-15T09:03:00.705Z,100765.56
2018-06-15T09:05:31.059Z,100759.48
2018-06-15T09:08:01.735Z,100762.98
2018-06-15T09:10:31.594Z,100758.41
2018-06-15T09:13:00.645Z,100760.37
2018-06-15T09:15:29.373Z,100760.86
2018-06-15T09:17:59.814Z,100759.03
2018-06-15T09:20:28.799Z,100761.38
2018-06-15T09:22:58.206Z,100761.55
2018-06-15T09:25:27.746Z,100752.48
2018-06-15T09:28:02.348Z,100757.32
2018-06-15T09:30:32.295Z,100756.22
2018-06-15T09:33:01.019Z,100753.95
2018-06-15T09:35:29.820Z,100750.02
2018-06-15T09:37:58.847Z,100750.05
2018-06-15T09:40:27.797Z,100747.47
2018-06-15T09:42:56.947Z,100742.08
2018-06-15T09:45:25.840Z,100737.38
2018-06-15T09:47:55.124Z,100733.30
2018-06-15T09:50:23.922Z,100734.28
2018-06-15T09:52:53.028Z,100736.74
2018-06-15T09:58:09.416Z,100736.38
2018-06-15T10:00:38.314Z,100743.41
2018-06-15T10:03:07.730Z,100744.12
2018-06-15T10:05:36.636Z,100746.66
2018-06-15T10:08:05.786Z,100750.05
2018-06-15T10:10:34.859Z,100746.38
2018-06-15T10:13:03.930Z,100747.62
2018-06-15T10:15:32.736Z,100751.05
2018-06-15T10:18:02.071Z,100756.34
2018-06-15T10:20:30.784Z,100752.98
2018-06-15T10:22:59.922Z,100750.77
2018-06-15T10:25:28.768Z,100748.55
2018-06-15T10:27:57.486Z,100754.20
2018-06-15T10:30:26.185Z,100758.83
2018-06-15T10:32:54.921Z,100759.09
2018-06-15T10:35:23.941Z,100762.59
2018-06-15T10:37:53.080Z,100759.25
2018-06-15T10:40:21.793Z,100756.63
2018-06-15T10:42:50.633Z,100753.52
2018-06-15T10:45:19.687Z,100751.69
2018-06-15T10:47:51.662Z,100756.30
2018-06-15T10:50:20.682Z,100754.84
2018-06-15T10:52:49.532Z,100752.11
2018-06-15T10:55:18.221Z,100751.54
2018-06-15T10:57:47.004Z,100755.58
2018-06-15T11:00:16.251Z,100750.33
2018-06-15T11:02:45.359Z,100752.72
2018-06-15T11:05:14.227Z,100753.58
2018-06-15T11:07:42.986Z,100751.70
2018-06-15T11:10:12.237Z,100751.12
2018-06-15T11:12:41.169Z,100756.41
2018-06-15T11:15:10.025Z,100744.77
2018-06-15T11:17:38.739Z,100747.75
2018-06-15T11:20:07.438Z,100747.15
2018-06-15T11:22:36.506Z,100752.88
2018-06-15T11:25:05.131Z,100754.75
2018-06-15T11:27:33.979Z,100750.52
2018-06-15T11:30:02.736Z,100749.91
2018-06-15T11:32:31.510Z,100749.31
2018-06-15T11:35:00.236Z,100754.09
2018-06-15T11:37:28.936Z,100759.13
2018-06-15T11:39:57.654Z,100751.46
2018-06-15T11:42:27.916Z,100751.05
2018-06-15T11:44:56.665Z,100751.94
2018-06-15T11:47:25.302Z,100748.02
2018-06-15T11:49:54.043Z,100752.14
2018-06-15T11:52:23.334Z,100745.80
2018-06-15T11:54:52.121Z,100741.82
2018-06-15T11:57:20.758Z,100741.55
2018-06-15T11:59:49.487Z,100737.67
2018-06-15T12:02:18.296Z,100744.70
2018-06-15T12:04:48.561Z,100744.97
2018-06-15T12:07:17.307Z,100738.87
2018-06-15T12:09:46.011Z,100736.63
2018-06-15T12:12:14.749Z,100741.36
2018-06-15T12:14:43.499Z,100739.03
2018-06-15T12:17:12.172Z,100735.92
2018-06-15T12:19:41.040Z,100736.07
2018-06-15T12:22:09.964Z,100741.01
2018-06-15T12:24:38.832Z,100740.70
2018-06-15T12:27:08.103Z,100738.66
2018-06-15T12:29:37.793Z,100736.02
2018-06-15T12:32:08.343Z,100739.33
2018-06-15T12:34:35.650Z,100742.73
2018-06-15T12:37:04.437Z,100748.20
2018-06-15T12:39:33.163Z,100745.33
2018-06-15T12:42:01.865Z,100750.64
2018-06-15T12:44:30.627Z,100747.09
2018-06-15T12:46:59.343Z,100748.16
2018-06-15T12:49:28.043Z,100749.28
2018-06-15T12:51:56.740Z,100751.87
2018-06-15T12:54:25.563Z,100749.04
2018-06-15T12:56:54.266Z,100748.63
2018-06-15T12:59:22.977Z,100745.00
2018-06-15T13:01:51.776Z,100744.56
2018-06-15T13:04:20.517Z,100752.81
2018-06-15T13:06:52.368Z,100752.14
2018-06-15T13:09:21.175Z,100751.52
2018-06-15T13:11:49.910Z,100748.50
2018-06-15T13:14:18.603Z,100737.16
2018-06-15T13:16:47.467Z,100746.06
2018-06-15T13:19:16.241Z,100737.39
2018-06-15T13:21:44.979Z,100739.88
2018-06-15T13:24:13.657Z,100740.08
2018-06-15T13:26:42.359Z,100735.15
2018-06-15T13:29:11.129Z,100736.66
2018-06-15T13:31:39.854Z,100731.06
2018-06-15T13:34:08.593Z,100733.68
2018-06-15T13:36:40.280Z,100738.57
2018-06-15T13:39:09.127Z,100735.66
2018-06-15T13:41:38.001Z,100725.95
2018-06-15T13:44:06.747Z,100731.07
2018-06-15T13:46:35.519Z,100730.73
2018-06-15T13:49:04.206Z,100729.67
2018-06-15T13:51:32.939Z,100729.33
2018-06-15T13:54:04.914Z,100727.41
2018-06-15T13:56:33.618Z,100732.27
2018-06-15T13:59:02.354Z,100728.50
2018-06-15T14:01:33.728Z,100730.80
2018-06-15T14:04:02.464Z,100730.23
2018-06-15T14:06:32.121Z,100728.83
2018-06-15T14:09:01.062Z,100720.50
2018-06-15T14:11:30.063Z,100727.47
2018-06-15T14:16:46.269Z,100721.47
2018-06-15T14:19:15.575Z,100722.41
2018-06-15T14:21:44.291Z,100719.98
2018-06-15T14:24:15.593Z,100715.88
2018-06-15T14:26:44.666Z,100717.63
2018-06-15T14:29:13.516Z,100713.05
2018-06-15T14:31:42.212Z,100714.13
2018-06-15T14:34:10.919Z,100712.48
2018-06-15T14:36:39.607Z,100710.77
2018-06-15T14:39:08.333Z,100711.09
2018-06-15T14:41:37.097Z,100714.30
2018-06-15T14:44:05.996Z,100706.97
2018-06-15T14:46:34.735Z,100713.26
2018-06-15T14:49:04.073Z,100708.87
2018-06-15T14:51:32.847Z,100710.06
2018-06-15T14:54:02.148Z,100706.17
2018-06-15T14:56:30.909Z,100702.28
2018-06-15T14:58:59.716Z,100700.14
2018-06-15T15:01:28.358Z,100693.56
2018-06-15T15:03:57.440Z,100687.18
2018-06-15T15:06:26.597Z,100683.16
2018-06-15T15:08:55.537Z,100679.55
2018-06-15T15:11:24.494Z,100673.60
2018-06-15T15:13:53.325Z,100665.34
2018-06-15T15:19:09.700Z,100666.59
2018-06-15T15:21:38.408Z,100663.45
2018-06-15T15:24:07.074Z,100666.16
2018-06-15T15:26:36.212Z,100668.92
2018-06-15T15:29:05.435Z,100662.78
2018-06-15T15:31:34.423Z,100660.84
2018-06-15T15:34:03.814Z,100659.09
2018-06-15T15:36:36.037Z,100663.97
2018-06-15T15:39:06.798Z,100652.20
2018-06-15T15:44:30.133Z,100654.48
2018-06-15T15:47:00.928Z,100654.41
2018-06-15T15:49:30.068Z,100655.02
2018-06-15T15:54:46.434Z,100651.07
2018-06-15T15:57:17.895Z,100657.47
2018-06-15T15:59:46.655Z,100654.69
2018-06-15T16:02:15.741Z,100655.05
2018-06-15T16:04:44.396Z,100651.70
2018-06-15T16:07:13.334Z,100649.78
2018-06-15T16:09:42.246Z,100655.66
2018-06-15T16:12:10.988Z,100650.70
2018-06-15T16:14:39.779Z,100655.35
2018-06-15T16:17:12.157Z,100655.00
2018-06-15T16:19:43.034Z,100653.23
2018-06-15T16:22:11.882Z,100651.11
2018-06-15T16:24:40.761Z,100648.47
2018-06-15T16:27:11.430Z,100652.69
2018-06-15T16:29:41.305Z,100643.56
2018-06-15T16:37:49.389Z,100649.51
2018-06-15T16:40:21.689Z,100648.64
2018-06-15T16:42:51.476Z,100647.34
2018-06-15T16:45:20.757Z,100641.72
2018-06-15T16:47:50.075Z,100639.58
2018-06-15T16:53:08.324Z,100638.19
2018-06-15T16:55:38.363Z,100644.30
2018-06-15T16:58:07.835Z,100641.81
2018-06-15T17:06:13.675Z,100649.44
2018-06-15T17:08:43.166Z,100642.02
2018-06-15T17:11:12.962Z,100643.36
2018-06-15T17:13:41.830Z,100645.32
2018-06-15T17:16:15.638Z,100642.69
2018-06-15T17:18:48.018Z,100642.42
2018-06-15T17:21:19.561Z,100644.25
2018-06-15T17:23:50.894Z,100644.02
2018-06-15T17:31:51.885Z,100655.73
2018-06-15T17:39:50.491Z,100660.23
2018-06-15T17:42:20.119Z,100665.37
2018-06-15T17:44:50.532Z,100663.05
2018-06-15T17:47:20.072Z,100665.42
2018-06-15T17:49:54.668Z,100661.11
2018-06-15T17:52:23.884Z,100663.81
2018-06-15T17:54:52.831Z,100659.59
2018-06-15T17:57:23.055Z,100660.20
2018-06-15T17:59:55.264Z,100654.97
2018-06-15T18:02:27.024Z,100657.08
2018-06-15T18:04:58.698Z,100656.66
2018-06-15T18:07:30.350Z,100659.17
2018-06-15T18:10:04.435Z,100666.73
2018-06-15T18:12:33.592Z,100662.67
2018-06-15T18:15:02.580Z,100665.80
2018-06-15T18:17:31.972Z,100666.79
2018-06-15T18:20:01.493Z,100669.83
2018-06-15T18:22:30.349Z,100673.30
2018-06-15T18:25:02.164Z,100675.91
2018-06-15T18:27:32.189Z,100676.42
2018-06-15T18:30:01.602Z,100670.64
2018-06-15T18:32:31.115Z,100676.11
2018-06-15T18:35:06.735Z,100675.22
2018-06-15T18:37:35.846Z,100679.16
2018-06-15T18:40:06.068Z,100677.54
2018-06-15T18:42:35.461Z,100676.97
2018-06-15T18:45:09.288Z,100685.30
2018-06-15T18:47:44.635Z,100682.94
2018-06-15T18:50:20.140Z,100682.33
2018-06-15T18:52:53.836Z,100682.86
2018-06-15T18:55:25.309Z,100685.77
2018-06-15T18:57:58.016Z,100679.12
2018-06-15T19:00:30.813Z,100688.30
2018-06-15T19:03:02.253Z,100689.27
2018-06-15T19:05:32.373Z,100689.70
2018-06-15T19:08:01.770Z,100683.97
2018-06-15T19:10:31.355Z,100688.75
2018-06-15T19:13:00.992Z,100687.48
2018-06-15T19:15:31.491Z,100686.83
2018-06-15T19:18:00.659Z,100694.11
2018-06-15T19:20:33.745Z,100694.30
2018-06-15T19:23:03.280Z,100690.19
2018-06-15T19:25:33.610Z,100690.30
2018-06-15T19:28:05.167Z,100696.05
2018-06-15T19:30:34.232Z,100702.13
2018-06-15T19:33:03.925Z,100696.80
2018-06-15T19:35:32.968Z,100696.14
2018-06-15T19:38:03.398Z,100698.17
2018-06-15T19:40:32.487Z,100701.09
2018-06-15T19:43:01.603Z,100700.34
2018-06-15T19:45:33.078Z,100706.00
2018-06-15T19:48:03.185Z,100703.16
2018-06-15T19:50:34.920Z,100711.28
2018-06-15T19:53:03.960Z,100710.75
2018-06-15T19:55:35.612Z,100711.44
2018-06-15T19:58:05.864Z,100711.20
2018-06-15T20:00:39.241Z,100711.84
2018-06-15T20:03:08.976Z,100707.38
2018-06-15T20:05:38.522Z,100706.21
2018-06-15T20:08:09.289Z,100709.47
2018-06-15T20:10:38.629Z,100711.22
2018-06-15T20:13:07.805Z,100705.85
2018-06-15T20:15:37.482Z,100711.39
2018-06-15T20:18:07.998Z,100711.06
2018-06-15T20:20:38.549Z,100707.04
2018-06-15T20:23:08.157Z,100706.59
2018-06-15T20:25:55.004Z,100707.49
2018-06-15T20:28:25.255Z,100718.87
2018-06-15T20:30:59.467Z,100716.50
2018-06-15T20:33:30.568Z,100716.52
2018-06-15T20:36:00.268Z,100716.84
2018-06-15T20:38:33.694Z,100718.00
2018-06-15T20:41:06.520Z,100721.91
2018-06-15T20:43:35.792Z,100722.58
2018-06-15T20:46:06.337Z,100723.74
2018-06-15T20:51:25.083Z,100724.32
2018-06-15T20:53:56.602Z,100722.67
2018-06-15T20:56:26.185Z,100723.18
2018-06-15T20:58:55.760Z,100721.61
2018-06-15T21:01:27.086Z,100720.99
2018-06-15T21:04:07.729Z,100720.53
2018-06-15T21:06:43.252Z,100722.38
2018-06-15T21:09:10.475Z,100721.84
2018-06-15T21:11:41.467Z,100717.69
2018-06-15T21:14:10.705Z,100719.11
2018-06-15T21:16:42.645Z,100712.18
2018-06-15T21:19:14.466Z,100717.67
2018-06-15T21:21:43.708Z,100720.19
2018-06-15T21:24:13.147Z,100716.41
2018-06-15T21:26:42.018Z,100720.25
2018-06-15T21:29:19.376Z,100720.05
2018-06-15T21:31:48.128Z,100719.86
2018-06-15T21:34:18.061Z,100725.23
2018-06-15T21:36:51.761Z,100723.88
2018-06-15T21:39:21.113Z,100717.15
2018-06-15T21:41:49.965Z,100718.22
2018-06-15T21:44:18.648Z,100723.39
2018-06-15T21:46:47.451Z,100724.77
2018-06-15T21:49:16.181Z,100722.56
2018-06-15T21:51:48.392Z,100718.89
2018-06-15T21:54:19.500Z,100721.11
2018-06-15T21:56:53.373Z,100719.28
2018-06-15T21:59:23.814Z,100721.06
2018-06-15T22:01:55.479Z,100716.52
2018-06-15T22:04:24.404Z,100715.19
2018-06-15T22:06:53.275Z,100718.17
2018-06-15T22:09:22.126Z,100721.53
2018-06-15T22:11:50.994Z,100720.78
2018-06-15T22:14:19.707Z,100723.83
2018-06-15T22:16:48.605Z,100723.73
2018-06-15T22:19:17.401Z,100722.59
2018-06-15T22:21:46.230Z,100724.01
2018-06-15T22:24:20.151Z,100720.69
2018-06-15T22:26:50.955Z,100720.32
2018-06-15T22:29:31.277Z,100722.39
2018-06-15T22:32:00.081Z,100722.19
2018-06-15T22:34:28.824Z,100721.28
2018-06-15T22:36:57.768Z,100723.81
2018-06-15T22:39:26.535Z,100722.27
2018-06-15T22:41:55.417Z,100728.01
2018-06-15T22:44:24.260Z,100726.92
2018-06-15T22:46:53.030Z,100735.14
2018-06-15T22:49:21.766Z,100734.02
2018-06-15T22:51:50.513Z,100732.39
2018-06-15T22:54:19.571Z,100738.77
2018-06-15T22:56:48.481Z,100745.17
2018-06-15T22:59:17.328Z,100741.72
2018-06-15T23:01:46.126Z,100737.48
2018-06-15T23:04:14.993Z,100734.42
2018-06-15T23:06:43.778Z,100740.72
2018-06-15T23:09:12.869Z,100747.53
2018-06-15T23:11:41.682Z,100747.87
2018-06-15T23:14:10.478Z,100750.84
2018-06-15T23:16:39.338Z,100741.81
2018-06-15T23:19:08.110Z,100741.02
2018-06-15T23:21:36.848Z,100737.20
2018-06-15T23:24:05.900Z,100737.68
2018-06-15T23:26:34.662Z,100726.52
2018-06-15T23:29:03.390Z,100734.84
2018-06-15T23:31:32.382Z,100733.33
2018-06-15T23:34:01.181Z,100729.66
2018-06-15T23:36:30.198Z,100724.22
2018-06-15T23:38:59.353Z,100733.66
2018-06-15T23:41:28.552Z,100729.84
2018-06-15T23:43:57.797Z,100725.48
2018-06-15T23:46:27.170Z,100727.19
2018-06-15T23:48:56.340Z,100721.86
2018-06-15T23:51:25.654Z,100726.75
2018-06-15T23:53:55.218Z,100724.81
2018-06-15T23:56:24.120Z,100718.31
2018-06-15T23:58:53.092Z,100718.95
